Time;durP1;ratioP1;P1;durP2;ratioP2;P2;SDS_P1;SDS_P2;PMS_P1;PMS_P2;Temp;Humidity;BMP_temperature;BMP_pressure;BME280_temperature;BME280_humidity;BME280_pressure;Samples;Min_cycle;Max_cycle;Signal;HPM_P1;HPM_P2
2023/10/12 00:22:11;;;;;;;13.60;8.37;;;17.80;99.90;;;;;;4751628;29;20201;-83
2023/10/12 00:47:43;;;;;;;13.70;7.83;;;17.60;99.90;;;;;;4753336;29;20217;-82
2023/10/12 01:23:07;;;;;;;13.90;7.67;;;17.10;99.90;;;;;;4767555;29;20307;-85
2023/10/12 01:53:31;;;;;;;13.03;8.00;;;17.00;99.90;;;;;;4879238;28;20604;-85
2023/10/12 02:23:32;;;;;;;11.23;6.63;;;17.30;99.90;;;;;;4798842;28;20564;-83
2023/10/12 02:39:22;;;;;;;11.27;7.07;;;17.40;99.90;;;;;;4811708;28;20769;-84
2023/10/12 02:43:43;;;;;;;12.77;6.80;;;17.40;99.90;;;;;;4671137;29;20577;-84
2023/10/12 03:04:17;;;;;;;12.13;6.87;;;17.90;99.90;;;;;;4695022;29;20679;-82
2023/10/12 03:24:53;;;;;;;10.47;6.70;;;17.80;99.90;;;;;;4663785;29;20434;-84
2023/10/12 03:55:27;;;;;;;11.97;7.37;;;17.50;99.90;;;;;;4737150;29;20321;-86
2023/10/12 03:59:59;;;;;;;11.70;7.00;;;17.40;99.90;;;;;;4646199;29;20475;-84
2023/10/12 04:15:27;;;;;;;11.53;6.93;;;17.40;99.90;;;;;;4652048;29;20654;-84
2023/10/12 05:01:24;;;;;;;11.17;6.87;;;17.20;99.90;;;;;;4587213;30;20281;-83
2023/10/12 05:31:09;;;;;;;13.77;7.17;;;17.60;99.90;;;;;;4570764;29;21027;-84
2023/10/12 06:11:31;;;;;;;9.00;6.57;;;18.00;99.90;;;;;;4577093;29;20924;-84
2023/10/12 06:27:27;;;;;;;9.43;6.03;;;18.40;97.20;;;;;;4644394;29;20258;-81
2023/10/12 06:52:26;;;;;;;11.80;5.90;;;18.90;94.30;;;;;;4653219;29;20478;-81
2023/10/12 07:38:34;;;;;;;8.97;5.67;;;19.30;90.60;;;;;;4675407;29;20218;-84
2023/10/12 07:42:50;;;;;;;6.37;4.87;;;19.30;90.50;;;;;;4663135;29;20561;-85
2023/10/12 07:58:29;;;;;;;11.53;5.80;;;19.10;91.10;;;;;;4673593;29;20210;-84
2023/10/12 08:24:15;;;;;;;10.90;6.17;;;18.50;99.70;;;;;;4758196;29;20368;-81
2023/10/12 08:28:36;;;;;;;11.53;6.43;;;18.60;99.50;;;;;;4724474;28;20575;-83
2023/10/12 09:19:57;;;;;;;13.27;5.82;;;19.70;92.00;;;;;;4765726;28;20304;-84
2023/10/12 09:24:28;;;;;;;11.50;5.85;;;19.90;90.90;;;;;;4654692;29;20775;-82
2023/10/12 09:45:23;;;;;;;11.13;5.75;;;20.50;86.10;;;;;;4700438;29;20548;-80
2023/10/12 09:49:47;;;;;;;11.60;5.32;;;20.60;87.30;;;;;;4628288;29;20592;-81
2023/10/12 10:15:14;;;;;;;10.60;5.70;;;19.10;97.90;;;;;;4722706;29;20562;-80
2023/10/12 10:30:49;;;;;;;10.37;5.80;;;18.30;99.90;;;;;;4660129;29;20312;-82
2023/10/12 10:55:41;;;;;;;11.00;6.73;;;17.60;99.90;;;;;;4723227;29;21246;-82
2023/10/12 11:26:05;;;;;;;10.87;7.83;;;16.80;99.90;;;;;;4696812;29;20594;-82
2023/10/12 11:51:57;;;;;;;11.80;6.97;;;17.00;99.90;;;;;;4692911;29;20374;-82
2023/10/12 12:37:46;;;;;;;5.40;4.43;;;17.00;99.90;;;;;;4899284;28;20995;-82
2023/10/12 13:07:33;;;;;;;7.67;5.23;;;17.20;99.90;;;;;;4818914;28;20737;-86
2023/10/12 13:27:54;;;;;;;12.17;6.23;;;17.20;99.90;;;;;;4722530;28;20803;-84
2023/10/12 13:53:42;;;;;;;10.53;6.10;;;17.30;99.90;;;;;;4699956;29;20250;-83
2023/10/12 14:28:50;;;;;;;9.47;6.37;;;16.90;99.90;;;;;;4701476;29;20569;-88
2023/10/12 14:54:39;;;;;;;11.33;7.20;;;16.50;99.90;;;;;;4689574;29;20277;-84
2023/10/12 15:24:56;;;;;;;9.17;4.50;;;15.90;99.90;;;;;;4699685;29;20705;-87
2023/10/12 15:55:28;;;;;;;6.13;3.40;;;15.20;99.90;;;;;;4830980;28;20209;-85
2023/10/12 16:31:05;;;;;;;3.03;2.13;;;14.80;99.90;;;;;;4862030;28;20212;-88
2023/10/12 17:01:30;;;;;;;6.10;3.50;;;14.70;99.90;;;;;;4870543;28;20572;-85
2023/10/12 17:47:11;;;;;;;6.20;3.70;;;14.50;99.90;;;;;;4921840;28;20231;-83
2023/10/12 18:17:35;;;;;;;5.60;4.43;;;13.50;99.90;;;;;;4812767;29;20350;-84
2023/10/12 18:48:06;;;;;;;8.47;6.30;;;12.90;99.90;;;;;;4850102;29;20357;-85
2023/10/12 18:52:28;;;;;;;10.27;6.63;;;12.50;99.90;;;;;;4747901;29;20214;-84
2023/10/12 19:18:22;;;;;;;19.67;9.93;;;11.80;99.90;;;;;;4742523;29;20298;-84
2023/10/12 19:48:16;;;;;;;13.93;9.70;;;11.70;99.90;;;;;;4722221;29;20581;-85
2023/10/12 20:39:29;;;;;;;15.20;9.40;;;10.70;99.90;;;;;;4859459;28;20203;-85
2023/10/12 21:10:00;;;;;;;20.77;11.93;;;10.30;99.90;;;;;;4822526;29;20222;-84
2023/10/12 21:30:04;;;;;;;20.53;12.17;;;9.80;99.90;;;;;;4843702;28;20504;-84
2023/10/12 21:55:39;;;;;;;18.07;11.47;;;9.40;99.90;;;;;;4850808;28;20209;-86
2023/10/12 22:25:27;;;;;;;20.87;11.30;;;8.90;99.90;;;;;;4574910;30;20657;-83
2023/10/12 22:51:13;;;;;;;22.03;13.93;;;9.60;99.90;;;;;;4600592;30;20239;-85
2023/10/12 23:11:33;;;;;;;28.23;17.27;;;9.50;99.90;;;;;;4508905;30;20470;-87
2023/10/12 23:37:11;;;;;;;33.07;22.20;;;9.10;99.90;;;;;;4586545;29;20272;-84
